createdAt,value
2018-06-12T00:01:16.955Z,87.84
2018-06-12T00:03:47.887Z,89.17
2018-06-12T00:06:17.348Z,89.14
2018-06-12T00:08:49.401Z,89.04
2018-06-12T00:11:18.553Z,89.69
2018-06-12T00:13:47.580Z,89.14
2018-06-12T00:16:22.059Z,89.45
2018-06-12T00:18:53.671Z,89.47
2018-06-12T00:21:25.786Z,87.75
2018-06-12T00:23:57.790Z,87.15
2018-06-12T00:26:28.490Z,86.89
2018-06-12T00:29:02.742Z,86.78
2018-06-12T00:31:32.306Z,88.00
2018-06-12T00:34:01.847Z,87.87
2018-06-12T00:36:30.810Z,87.75
2018-06-12T00:39:00.887Z,88.11
2018-06-12T00:41:30.526Z,87.43
2018-06-12T00:43:59.462Z,86.70
2018-06-12T00:46:28.818Z,86.33
2018-06-12T00:48:59.075Z,85.65
2018-06-12T00:51:28.714Z,86.17
2018-06-12T00:53:57.919Z,85.27
2018-06-12T00:56:38.173Z,85.05
2018-06-12T00:59:07.603Z,85.30
2018-06-12T01:01:36.943Z,85.69
2018-06-12T01:04:06.198Z,84.64
2018-06-12T01:06:36.795Z,85.23
2018-06-12T01:09:07.808Z,85.06
2018-06-12T01:11:37.024Z,85.25
2018-06-12T01:14:06.560Z,84.98
2018-06-12T01:16:37.407Z,85.04
2018-06-12T01:19:06.607Z,84.97
2018-06-12T01:21:37.018Z,85.31
2018-06-12T01:24:06.510Z,85.01
2018-06-12T01:26:39.376Z,84.96
2018-06-12T01:29:11.214Z,85.51
2018-06-12T01:31:42.986Z,85.63
2018-06-12T01:34:12.544Z,85.60
2018-06-12T01:36:42.227Z,85.28
2018-06-12T01:39:11.964Z,85.22
2018-06-12T01:41:41.610Z,85.77
2018-06-12T01:44:11.435Z,85.48
2018-06-12T01:46:40.452Z,86.27
2018-06-12T01:49:10.071Z,86.46
2018-06-12T01:51:41.536Z,86.01
2018-06-12T01:54:11.474Z,85.98
2018-06-12T01:56:43.186Z,85.73
2018-06-12T01:59:13.358Z,86.52
2018-06-12T02:01:45.347Z,86.80
2018-06-12T02:04:22.324Z,86.80
2018-06-12T02:06:52.011Z,86.96
2018-06-12T02:15:02.102Z,86.23
2018-06-12T02:17:31.526Z,86.19
2018-06-12T02:20:01.050Z,86.46
2018-06-12T02:22:32.258Z,86.45
2018-06-12T02:25:02.547Z,87.09
2018-06-12T02:27:33.688Z,87.25
2018-06-12T02:30:02.990Z,87.79
2018-06-12T02:32:31.887Z,88.04
2018-06-12T02:35:01.808Z,88.25
2018-06-12T02:37:30.845Z,87.83
2018-06-12T02:39:59.729Z,88.48
2018-06-12T02:42:29.247Z,88.67
2018-06-12T02:44:59.197Z,88.87
2018-06-12T02:47:27.922Z,88.68
2018-06-12T02:49:56.864Z,88.14
2018-06-12T02:52:26.358Z,88.30
2018-06-12T02:54:55.323Z,88.10
2018-06-12T02:57:28.005Z,88.73
2018-06-12T02:59:57.173Z,88.99
2018-06-12T03:02:26.116Z,88.58
2018-06-12T03:04:55.266Z,88.84
2018-06-12T03:07:24.890Z,88.48
2018-06-12T03:09:53.786Z,88.41
2018-06-12T03:12:22.650Z,87.38
2018-06-12T03:14:51.907Z,85.21
2018-06-12T03:17:21.213Z,84.97
2018-06-12T03:19:50.654Z,85.03
2018-06-12T03:22:19.485Z,84.92
2018-06-12T03:24:48.798Z,84.91
2018-06-12T03:27:17.815Z,85.19
2018-06-12T03:29:47.345Z,85.77
2018-06-12T03:32:16.381Z,85.24
2018-06-12T03:34:46.158Z,86.19
2018-06-12T03:37:15.354Z,85.54
2018-06-12T03:39:44.332Z,85.01
2018-06-12T03:42:13.792Z,84.20
2018-06-12T03:44:42.724Z,84.08
2018-06-12T03:47:11.461Z,83.47
2018-06-12T03:49:41.041Z,82.92
2018-06-12T03:52:10.569Z,83.61
2018-06-12T03:54:39.830Z,83.61
2018-06-12T03:57:08.745Z,83.71
2018-06-12T03:59:38.410Z,84.75
2018-06-12T04:02:08.029Z,84.29
2018-06-12T04:04:36.970Z,82.79
2018-06-12T04:07:06.026Z,83.48
2018-06-12T04:09:35.089Z,83.16
2018-06-12T04:12:04.291Z,82.91
2018-06-12T04:14:34.076Z,82.96
2018-06-12T04:17:04.507Z,82.56
2018-06-12T04:19:34.234Z,82.89
2018-06-12T04:22:04.609Z,83.08
2018-06-12T04:24:33.756Z,83.03
2018-06-12T04:27:03.201Z,82.80
2018-06-12T04:29:32.843Z,82.93
2018-06-12T04:32:02.497Z,83.44
2018-06-12T04:34:31.775Z,83.62
2018-06-12T04:37:01.078Z,82.83
2018-06-12T04:39:31.118Z,82.83
2018-06-12T04:42:01.229Z,81.07
2018-06-12T04:44:30.613Z,80.21
2018-06-12T04:46:59.596Z,80.25
2018-06-12T04:49:29.224Z,81.08
2018-06-12T04:51:58.214Z,80.68
2018-06-12T04:54:27.187Z,80.31
2018-06-12T04:56:57.464Z,80.95
2018-06-12T04:59:27.174Z,81.23
2018-06-12T05:01:58.633Z,80.57
2018-06-12T05:04:28.147Z,79.97
2018-06-12T05:06:57.068Z,80.50
2018-06-12T05:09:26.452Z,81.09
2018-06-12T05:11:55.448Z,81.60
2018-06-12T05:14:25.142Z,82.15
2018-06-12T05:16:54.536Z,81.97
2018-06-12T05:19:24.055Z,81.95
2018-06-12T05:21:53.635Z,82.41
2018-06-12T05:24:23.047Z,81.07
2018-06-12T05:26:51.881Z,81.69
2018-06-12T05:29:20.721Z,80.40
2018-06-12T05:31:50.134Z,80.59
2018-06-12T05:34:18.986Z,80.44
2018-06-12T05:36:48.533Z,80.49
2018-06-12T05:39:18.136Z,79.48
2018-06-12T05:41:47.413Z,80.93
2018-06-12T05:44:16.677Z,80.74
2018-06-12T05:46:45.700Z,80.75
2018-06-12T05:49:14.714Z,81.43
2018-06-12T05:51:43.598Z,80.17
2018-06-12T05:54:12.641Z,79.52
2018-06-12T05:56:41.520Z,79.40
2018-06-12T05:59:10.608Z,80.17
2018-06-12T06:01:39.580Z,78.04
2018-06-12T06:04:09.382Z,76.78
2018-06-12T06:06:39.921Z,76.46
2018-06-12T06:09:09.175Z,76.57
2018-06-12T06:11:38.469Z,76.26
2018-06-12T06:14:08.256Z,75.24
2018-06-12T06:16:37.606Z,74.92
2018-06-12T06:19:06.522Z,71.53
2018-06-12T06:21:35.555Z,68.09
2018-06-12T06:24:05.059Z,68.01
2018-06-12T06:26:34.297Z,69.06
2018-06-12T06:29:04.129Z,68.25
2018-06-12T06:31:34.004Z,68.12
2018-06-12T06:34:03.374Z,68.87
2018-06-12T06:36:33.079Z,70.08
2018-06-12T06:39:02.394Z,69.65
2018-06-12T06:41:31.645Z,67.81
2018-06-12T06:44:01.113Z,66.55
2018-06-12T06:46:30.675Z,65.64
2018-06-12T06:49:00.516Z,66.11
2018-06-12T06:51:30.585Z,65.39
2018-06-12T06:54:00.017Z,62.39
2018-06-12T06:56:28.818Z,59.30
2018-06-12T06:58:57.873Z,59.25
2018-06-12T07:01:27.748Z,53.96
2018-06-12T07:03:57.024Z,54.25
2018-06-12T07:06:26.928Z,53.08
2018-06-12T07:08:56.034Z,54.88
2018-06-12T07:11:24.816Z,56.41
2018-06-12T07:13:53.416Z,56.74
2018-06-12T07:16:23.067Z,56.58
2018-06-12T07:18:52.087Z,58.11
2018-06-12T07:21:24.510Z,57.79
2018-06-12T07:23:53.129Z,56.45
2018-06-12T07:26:22.619Z,55.88
2018-06-12T07:28:51.596Z,47.72
2018-06-12T07:31:20.541Z,43.71
2018-06-12T07:33:49.269Z,36.33
2018-06-12T07:36:18.546Z,36.54
2018-06-12T07:38:47.354Z,37.30
2018-06-12T07:41:15.953Z,43.94
2018-06-12T07:43:44.777Z,49.07
2018-06-12T07:46:13.456Z,47.41
2018-06-12T07:48:42.046Z,46.68
2018-06-12T07:51:11.110Z,49.45
2018-06-12T07:53:39.869Z,52.62
2018-06-12T07:56:08.397Z,54.06
2018-06-12T07:58:37.745Z,55.74
2018-06-12T08:01:06.342Z,57.41
2018-06-12T08:03:34.990Z,58.71
2018-06-12T08:06:03.540Z,59.64
2018-06-12T08:08:32.197Z,58.48
2018-06-12T08:11:00.729Z,59.97
2018-06-12T08:13:29.300Z,57.17
2018-06-12T08:15:57.910Z,57.24
2018-06-12T08:18:26.402Z,57.99
2018-06-12T08:20:54.955Z,59.15
2018-06-12T08:23:23.481Z,57.78
2018-06-12T08:25:52.056Z,57.34
2018-06-12T08:28:20.621Z,57.40
2018-06-12T08:30:49.206Z,52.87
2018-06-12T08:33:17.817Z,50.73
2018-06-12T08:35:46.532Z,49.30
2018-06-12T08:38:15.217Z,49.29
2018-06-12T08:40:43.746Z,42.01
2018-06-12T08:43:12.509Z,36.55
2018-06-12T08:45:41.070Z,38.79
2018-06-12T08:48:09.749Z,33.63
2018-06-12T08:50:38.361Z,33.87
2018-06-12T08:53:07.302Z,33.68
2018-06-12T08:55:36.312Z,31.82
2018-06-12T08:58:04.827Z,33.58
2018-06-12T09:00:33.384Z,36.39
2018-06-12T09:03:01.855Z,38.64
2018-06-12T09:05:30.344Z,43.30
2018-06-12T09:07:58.871Z,42.57
2018-06-12T09:10:27.395Z,43.07
2018-06-12T09:12:56.195Z,45.79
2018-06-12T09:15:24.848Z,46.96
2018-06-12T09:17:53.481Z,47.86
2018-06-12T09:20:22.168Z,48.03
2018-06-12T09:22:51.057Z,46.85
2018-06-12T09:25:19.610Z,45.15
2018-06-12T09:27:48.333Z,43.27
2018-06-12T09:30:18.076Z,46.95
2018-06-12T09:32:47.220Z,46.55
2018-06-12T09:35:15.813Z,49.54
2018-06-12T09:37:44.367Z,52.07
2018-06-12T09:40:12.948Z,55.00
2018-06-12T09:42:41.659Z,55.50
2018-06-12T09:45:10.253Z,54.96
2018-06-12T09:47:39.012Z,53.84
2018-06-12T09:50:07.844Z,53.50
2018-06-12T09:52:36.759Z,54.99
2018-06-12T09:55:05.723Z,54.71
2018-06-12T09:57:34.690Z,55.00
2018-06-12T10:00:03.265Z,52.50
2018-06-12T10:02:31.972Z,51.54
2018-06-12T10:05:00.723Z,50.90
2018-06-12T10:07:30.438Z,51.16
2018-06-12T10:09:59.029Z,51.09
2018-06-12T10:12:27.590Z,50.86
2018-06-12T10:14:57.804Z,51.04
2018-06-12T10:17:26.437Z,51.57
2018-06-12T10:19:55.138Z,50.72
2018-06-12T10:22:24.290Z,51.09
2018-06-12T10:24:53.782Z,51.45
2018-06-12T10:27:22.389Z,47.66
2018-06-12T10:29:51.013Z,45.71
2018-06-12T10:32:21.398Z,41.55
2018-06-12T10:34:50.534Z,42.81
2018-06-12T10:37:19.229Z,44.34
2018-06-12T10:39:47.754Z,43.39
2018-06-12T10:42:16.290Z,36.33
2018-06-12T10:44:46.177Z,32.28
2018-06-12T10:47:14.885Z,30.91
2018-06-12T10:49:43.591Z,28.01
2018-06-12T10:52:12.921Z,29.35
2018-06-12T10:54:41.709Z,32.24
2018-06-12T10:57:10.673Z,30.23
2018-06-12T10:59:39.284Z,34.04
2018-06-12T11:02:07.778Z,34.74
2018-06-12T11:04:37.234Z,36.59
2018-06-12T11:07:05.856Z,34.48
2018-06-12T11:09:34.589Z,39.07
2018-06-12T11:12:03.576Z,40.34
2018-06-12T11:14:32.122Z,41.92
2018-06-12T11:17:00.969Z,42.15
2018-06-12T11:19:29.589Z,42.25
2018-06-12T11:21:59.434Z,44.18
2018-06-12T11:24:28.096Z,41.78
2018-06-12T11:26:57.076Z,43.41
2018-06-12T11:29:25.722Z,43.45
2018-06-12T11:31:54.669Z,42.60
2018-06-12T11:34:23.574Z,42.16
2018-06-12T11:36:52.139Z,40.67
2018-06-12T11:39:21.031Z,41.87
2018-06-12T11:41:49.933Z,39.52
2018-06-12T11:44:18.734Z,39.46
2018-06-12T11:46:47.317Z,38.99
2018-06-12T11:49:18.861Z,38.39
2018-06-12T11:51:47.471Z,39.91
2018-06-12T11:54:16.598Z,40.33
2018-06-12T11:56:45.189Z,42.00
2018-06-12T11:59:13.868Z,43.77
2018-06-12T12:01:42.761Z,43.33
2018-06-12T12:04:11.487Z,43.54
2018-06-12T12:06:40.204Z,45.27
2018-06-12T12:09:09.592Z,47.40
2018-06-12T12:11:38.457Z,46.44
2018-06-12T12:14:07.978Z,48.94
2018-06-12T12:16:36.548Z,47.53
2018-06-12T12:19:05.292Z,44.94
2018-06-12T12:21:33.823Z,45.65
2018-06-12T12:24:03.130Z,44.39
2018-06-12T12:26:31.846Z,44.62
2018-06-12T12:29:00.384Z,45.04
2018-06-12T12:31:29.254Z,44.30
2018-06-12T12:33:58.249Z,44.93
2018-06-12T12:36:26.938Z,45.31
2018-06-12T12:38:55.513Z,46.37
2018-06-12T12:41:24.313Z,45.04
2018-06-12T12:43:52.891Z,46.84
2018-06-12T12:46:21.892Z,47.01
2018-06-12T12:48:50.454Z,45.57
2018-06-12T12:51:18.940Z,46.12
2018-06-12T12:53:47.460Z,46.19
2018-06-12T12:56:16.458Z,47.39
2018-06-12T12:58:45.197Z,49.18
2018-06-12T13:01:13.977Z,50.00
2018-06-12T13:03:42.520Z,50.22
2018-06-12T13:06:11.063Z,51.54
2018-06-12T13:08:39.614Z,49.11
2018-06-12T13:11:08.382Z,48.76
2018-06-12T13:13:37.016Z,49.38
2018-06-12T13:16:06.446Z,48.47
2018-06-12T13:18:35.596Z,51.52
2018-06-12T13:21:04.104Z,46.82
2018-06-12T13:23:32.728Z,45.15
2018-06-12T13:26:02.288Z,47.45
2018-06-12T13:28:30.798Z,43.46
2018-06-12T13:30:59.477Z,44.61
2018-06-12T13:33:28.230Z,46.66
2018-06-12T13:35:56.807Z,44.79
2018-06-12T13:38:25.332Z,46.62
2018-06-12T13:40:53.933Z,44.96
2018-06-12T13:43:22.632Z,45.96
2018-06-12T13:45:51.140Z,45.83
2018-06-12T13:48:26.262Z,47.97
2018-06-12T13:50:54.844Z,48.85
2018-06-12T13:53:23.485Z,49.10
2018-06-12T13:55:52.026Z,50.12
2018-06-12T13:58:20.561Z,49.13
2018-06-12T14:00:49.082Z,49.01
2018-06-12T14:03:17.617Z,49.82
2018-06-12T14:05:46.232Z,50.12
2018-06-12T14:08:14.897Z,50.73
2018-06-12T14:10:43.442Z,51.18
2018-06-12T14:13:11.972Z,51.22
2018-06-12T14:15:40.778Z,52.09
2018-06-12T14:18:09.608Z,52.03
2018-06-12T14:20:38.517Z,51.01
2018-06-12T14:23:10.362Z,48.82
2018-06-12T14:25:39.128Z,51.15
2018-06-12T14:28:07.898Z,51.38
2018-06-12T14:30:36.729Z,52.17
2018-06-12T14:33:05.382Z,50.57
2018-06-12T14:35:34.139Z,50.47
2018-06-12T14:38:02.878Z,51.20
2018-06-12T14:40:31.931Z,52.42
2018-06-12T14:43:00.902Z,54.25
2018-06-12T14:45:29.864Z,55.24
2018-06-12T14:47:58.720Z,55.27
2018-06-12T14:50:27.476Z,53.59
2018-06-12T14:52:56.388Z,51.43
2018-06-12T14:55:25.263Z,51.38
2018-06-12T14:57:53.937Z,52.28
2018-06-12T15:00:22.818Z,54.07
2018-06-12T15:02:52.391Z,53.77
2018-06-12T15:05:20.987Z,53.46
2018-06-12T15:07:50.020Z,54.29
2018-06-12T15:10:18.820Z,54.56
2018-06-12T15:12:47.935Z,54.55
2018-06-12T15:15:16.809Z,54.58
2018-06-12T15:17:45.533Z,55.21
2018-06-12T15:20:14.201Z,56.09
2018-06-12T15:22:43.124Z,56.77
2018-06-12T15:25:11.894Z,57.16
2018-06-12T15:27:40.445Z,57.45
2018-06-12T15:30:09.014Z,57.73
2018-06-12T15:32:37.731Z,58.78
2018-06-12T15:35:06.278Z,59.17
2018-06-12T15:37:34.817Z,60.58
2018-06-12T15:40:03.645Z,60.06
2018-06-12T15:42:32.293Z,59.22
2018-06-12T15:45:01.527Z,59.20
2018-06-12T15:47:30.181Z,59.86
2018-06-12T15:49:58.826Z,60.95
2018-06-12T15:52:27.504Z,61.02
2018-06-12T15:54:56.673Z,61.47
2018-06-12T15:57:25.405Z,62.37
2018-06-12T15:59:53.941Z,61.78
2018-06-12T16:02:22.597Z,61.68
2018-06-12T16:04:51.360Z,61.90
2018-06-12T16:07:19.929Z,63.09
2018-06-12T16:09:48.597Z,63.05
2018-06-12T16:12:17.126Z,63.20
2018-06-12T16:14:45.663Z,64.48
2018-06-12T16:17:14.633Z,64.70
2018-06-12T16:19:43.700Z,65.79
2018-06-12T16:22:12.569Z,65.72
2018-06-12T16:24:41.674Z,65.74
2018-06-12T16:27:10.284Z,65.92
2018-06-12T16:29:38.822Z,65.84
2018-06-12T16:32:07.428Z,66.28
2018-06-12T16:34:35.980Z,66.49
2018-06-12T16:37:05.524Z,66.71
2018-06-12T16:39:34.307Z,66.10
2018-06-12T16:42:02.887Z,66.13
2018-06-12T16:44:32.481Z,66.60
2018-06-12T16:47:01.041Z,67.01
2018-06-12T16:49:29.661Z,66.79
2018-06-12T16:52:00.464Z,66.94
2018-06-12T16:54:29.021Z,65.88
2018-06-12T16:56:57.913Z,66.95
2018-06-12T16:59:27.190Z,66.53
2018-06-12T17:01:55.705Z,66.85
2018-06-12T17:04:24.237Z,68.26
2018-06-12T17:06:52.809Z,67.77
2018-06-12T17:09:21.363Z,67.70
2018-06-12T17:11:49.972Z,67.85
2018-06-12T17:14:19.504Z,67.63
2018-06-12T17:16:48.721Z,67.26
2018-06-12T17:19:17.389Z,67.62
2018-06-12T17:21:46.390Z,67.54
2018-06-12T17:24:14.954Z,67.60
2018-06-12T17:26:43.693Z,67.52
2018-06-12T17:29:12.571Z,68.75
2018-06-12T17:31:41.960Z,69.39
2018-06-12T17:34:10.822Z,70.38
2018-06-12T17:36:39.636Z,69.98
2018-06-12T17:39:09.072Z,69.22
2018-06-12T17:41:38.190Z,70.33
2018-06-12T17:44:07.024Z,71.32
2018-06-12T17:46:35.586Z,71.83
2018-06-12T17:49:04.146Z,72.36
2018-06-12T17:51:32.712Z,72.67
2018-06-12T17:54:01.268Z,72.33
2018-06-12T17:56:29.842Z,72.42
2018-06-12T17:58:58.425Z,72.98
2018-06-12T18:01:26.991Z,72.98
2018-06-12T18:03:55.595Z,73.29
2018-06-12T18:06:24.149Z,73.09
2018-06-12T18:08:52.671Z,72.78
2018-06-12T18:11:21.349Z,70.59
2018-06-12T18:13:49.991Z,66.78
2018-06-12T18:16:18.642Z,66.24
2018-06-12T18:18:47.173Z,67.36
2018-06-12T18:21:15.692Z,65.13
2018-06-12T18:23:44.272Z,65.58
2018-06-12T18:26:12.783Z,67.59
2018-06-12T18:28:41.369Z,65.52
2018-06-12T18:31:09.940Z,65.88
2018-06-12T18:33:38.608Z,67.02
2018-06-12T18:36:07.144Z,69.17
2018-06-12T18:38:35.778Z,68.57
2018-06-12T18:41:04.324Z,69.84
2018-06-12T18:43:32.860Z,70.47
2018-06-12T18:46:01.372Z,71.85
2018-06-12T18:48:29.906Z,72.18
2018-06-12T18:50:58.458Z,73.40
2018-06-12T18:53:26.995Z,74.18
2018-06-12T18:55:55.647Z,76.16
2018-06-12T18:58:24.247Z,76.20
2018-06-12T19:00:52.868Z,76.57
2018-06-12T19:03:21.394Z,78.26
2018-06-12T19:05:49.978Z,78.80
2018-06-12T19:08:18.497Z,81.20
2018-06-12T19:10:47.054Z,82.00
2018-06-12T19:13:15.621Z,83.13
2018-06-12T19:15:44.150Z,83.16
2018-06-12T19:18:12.707Z,84.18
2018-06-12T19:20:41.353Z,84.89
2018-06-12T19:23:10.051Z,100.00
2018-06-12T19:25:38.587Z,100.00
2018-06-12T19:28:07.209Z,100.00
2018-06-12T19:30:36.572Z,99.57
2018-06-12T19:33:05.108Z,95.28
2018-06-12T19:35:33.606Z,92.02
2018-06-12T19:38:04.286Z,90.67
2018-06-12T19:40:32.948Z,90.47
2018-06-12T19:43:01.487Z,90.25
2018-06-12T19:45:30.025Z,90.66
2018-06-12T19:47:58.715Z,90.04
2018-06-12T19:50:27.276Z,90.11
2018-06-12T19:52:55.888Z,91.32
2018-06-12T19:55:24.459Z,91.78
2018-06-12T19:57:53.071Z,91.83
2018-06-12T20:00:21.632Z,90.83
2018-06-12T20:02:50.262Z,90.78
2018-06-12T20:05:18.921Z,91.24
2018-06-12T20:07:47.597Z,90.75
2018-06-12T20:10:16.184Z,90.81
2018-06-12T20:12:44.920Z,91.19
2018-06-12T20:15:13.544Z,91.74
2018-06-12T20:17:42.247Z,91.52
2018-06-12T20:20:10.802Z,90.24
2018-06-12T20:22:39.400Z,89.17
2018-06-12T20:25:07.977Z,89.16
2018-06-12T20:27:36.625Z,89.38
2018-06-12T20:30:05.248Z,88.34
2018-06-12T20:32:33.836Z,88.00
2018-06-12T20:35:02.350Z,88.64
2018-06-12T20:37:31.061Z,88.15
2018-06-12T20:39:59.693Z,88.38
2018-06-12T20:42:28.274Z,88.16
2018-06-12T20:44:56.932Z,89.29
2018-06-12T20:47:25.544Z,89.01
2018-06-12T20:49:54.306Z,88.87
2018-06-12T20:52:22.962Z,87.69
2018-06-12T20:54:51.566Z,87.31
2018-06-12T20:57:20.087Z,87.54
2018-06-12T20:59:48.617Z,87.45
2018-06-12T21:02:17.296Z,88.44
2018-06-12T21:04:45.867Z,88.88
2018-06-12T21:07:14.578Z,88.54
2018-06-12T21:09:43.031Z,88.60
2018-06-12T21:12:11.658Z,88.30
2018-06-12T21:14:40.244Z,87.92
2018-06-12T21:17:08.801Z,88.60
2018-06-12T21:19:37.302Z,88.77
2018-06-12T21:22:05.824Z,89.91
2018-06-12T21:24:34.366Z,90.00
2018-06-12T21:27:02.880Z,90.15
2018-06-12T21:29:31.439Z,90.44
2018-06-12T21:32:00.020Z,89.96
2018-06-12T21:34:28.569Z,90.45
2018-06-12T21:36:57.205Z,90.07
2018-06-12T21:39:25.795Z,89.31
2018-06-12T21:41:54.303Z,89.05
2018-06-12T21:44:22.875Z,89.49
2018-06-12T21:46:51.512Z,89.62
2018-06-12T21:49:20.096Z,89.30
2018-06-12T21:51:48.841Z,89.64
2018-06-12T21:54:17.421Z,89.53
2018-06-12T21:56:45.982Z,89.19
2018-06-12T21:59:14.557Z,89.20
2018-06-12T22:01:43.101Z,89.56
2018-06-12T22:04:11.599Z,89.18
2018-06-12T22:06:40.208Z,88.69
2018-06-12T22:09:08.746Z,88.79
2018-06-12T22:11:37.332Z,88.24
2018-06-12T22:14:05.977Z,88.42
2018-06-12T22:16:34.566Z,88.33
2018-06-12T22:19:03.334Z,87.74
2018-06-12T22:21:31.858Z,88.17
2018-06-12T22:24:00.453Z,88.38
2018-06-12T22:26:29.172Z,88.19
2018-06-12T22:28:57.767Z,88.25
2018-06-12T22:31:26.416Z,89.05
2018-06-12T22:33:55.030Z,89.39
2018-06-12T22:36:23.693Z,89.01
2018-06-12T22:38:52.300Z,88.78
2018-06-12T22:41:20.855Z,88.16
2018-06-12T22:43:49.384Z,88.88
2018-06-12T22:46:18.033Z,88.94
2018-06-12T22:48:46.699Z,89.18
2018-06-12T22:51:15.340Z,89.11
2018-06-12T22:53:43.885Z,88.31
2018-06-12T22:56:12.423Z,88.74
2018-06-12T22:58:40.957Z,88.32
2018-06-12T23:01:09.506Z,88.96
2018-06-12T23:03:38.062Z,88.97
2018-06-12T23:06:06.754Z,88.71
2018-06-12T23:08:35.293Z,88.03
2018-06-12T23:11:03.885Z,87.81
2018-06-12T23:13:32.421Z,87.50
2018-06-12T23:16:01.008Z,87.76
2018-06-12T23:18:29.512Z,88.47
2018-06-12T23:22:06.277Z,87.58
2018-06-12T23:24:34.853Z,88.21
2018-06-12T23:27:03.424Z,89.15
2018-06-12T23:29:31.961Z,88.32
2018-06-12T23:32:00.585Z,88.50
2018-06-12T23:34:29.148Z,88.21
2018-06-12T23:36:57.925Z,87.22
2018-06-12T23:39:26.634Z,86.95
2018-06-12T23:41:55.084Z,87.48
2018-06-12T23:44:23.619Z,87.54
2018-06-12T23:46:52.178Z,88.35
2018-06-12T23:49:20.690Z,87.32
2018-06-12T23:51:49.257Z,88.15
2018-06-12T23:54:17.798Z,88.01
2018-06-12T23:56:46.313Z,88.42
2018-06-12T23:59:15.013Z,88.08
